Flight Track Log - Related Links

Times and Time Zones

All times are in EDT time to prevent confusion due to time zone crossing. See the UAL4457 flight status page for this flight to view local times or setup timezone preferences in your user account.

Time Position Orientation Groundspeed Altitude Reporting Facility
EDT Latitude Longitude Course Direction KTS MPH feet Rate Location/Type
Tue 03:08:39 PM 29.9767 -95.3008 41° Northeast 276 318 600  Level Houston Center
Tue 03:10:11 PM 30.0486 -95.2389 37° Northeast 266 306 3,800 1,725 Climbing Houston Center
Tue 03:11:00 PM 30.2687 -95.1009 32° Northeast  Level FlightAware Approximate
Tue 03:11:12 PM 30.1119 -95.1950 31° Northeast 264 304 5,000  Level Houston Center
Tue 03:12:00 PM 30.3665 -95.0268 35° Northeast  Level FlightAware Approximate
Tue 03:12:23 PM 30.1783 -95.1483 31° Northeast 269 310 6,800  Level Houston Center
Tue 03:13:00 PM 30.4602 -94.9500 North  Level FlightAware Approximate
Tue 03:13:25 PM 30.2603 -95.0947 29° Northeast 279 321 10,000  Level Houston Center
Tue 03:14:00 PM 30.5569 -94.8764 41° Northeast  Level FlightAware Approximate
Tue 03:14:27 PM 30.3339 -95.0442 31° Northeast 300 345 12,300  Level Houston Center
Tue 03:15:29 PM 30.4111 -94.9853 33° Northeast 329 379 14,000 1,403 Climbing Houston Center
Tue 03:16:31 PM 30.5092 -94.9236 28° Northeast 366 421 15,200 1,463 Climbing Houston Center
Tue 03:17:32 PM 30.5997 -94.8558 33° Northeast 382 440 17,000 1,805 Climbing Houston Center
Tue 03:18:34 PM 30.6903 -94.7867 33° Northeast 388 447 18,900 1,790 Climbing Houston Center
Tue 03:19:36 PM 30.7800 -94.7172 34° Northeast 389 448 20,700 1,694 Climbing Houston Center
Tue 03:20:38 PM 30.8706 -94.6472 34° Northeast 393 452 22,400 1,846 Climbing Houston Center
Tue 03:20:54 PM 30.9069 -94.6194 33° Northeast 392 451 23,100 1,974 Climbing Fort Worth Center
Tue 03:21:54 PM 30.9972 -94.5489 34° Northeast 392 451 24,900 1,800 Climbing Fort Worth Center
Tue 03:22:54 PM 31.0894 -94.4758 34° Northeast 392 451 26,700 1,700 Climbing Fort Worth Center
Tue 03:23:54 PM 31.1714 -94.4150 32° Northeast 392 451 28,300 1,500 Climbing Fort Worth Center
Tue 03:24:54 PM 31.2719 -94.3364 34° Northeast 392 451 29,700 1,200 Climbing Fort Worth Center
Tue 03:25:54 PM 31.3661 -94.2628 34° Northeast 397 457 30,700 1,000 Climbing Fort Worth Center
Tue 03:26:54 PM 31.4536 -94.1697 42° Northeast 402 463 31,700 1,100 Climbing Fort Worth Center
Tue 03:27:54 PM 31.5325 -94.0792 44° Northeast 429 494 32,900 1,300 Climbing Fort Worth Center
Tue 03:28:54 PM 31.6089 -93.9717 50° Northeast 429 494 34,300 1,050 Climbing Fort Worth Center
Tue 03:29:54 PM 31.6833 -93.8664 50° Northeast 422 486 35,000 350 Climbing Fort Worth Center
Tue 03:30:54 PM 31.7594 -93.7533 52° Northeast 427 491 35,000  Level Fort Worth Center
Tue 03:31:54 PM 31.8456 -93.6278 51° Northeast 456 525 35,000  Level Fort Worth Center
Tue 03:32:54 PM 31.9314 -93.5017 51° Northeast 482 555 35,000  Level Fort Worth Center
Tue 03:33:54 PM 32.0192 -93.3706 52° Northeast 497 572 35,000  Level Fort Worth Center
Tue 03:34:54 PM 32.1067 -93.2392 52° Northeast 505 581 35,000  Level Fort Worth Center
Tue 03:35:54 PM 32.1858 -93.1128 53° Northeast 510 587 35,000  Level Fort Worth Center
Tue 03:36:54 PM 32.2833 -92.9756 50° Northeast 505 581 35,000  Level Fort Worth Center
Tue 03:37:54 PM 32.3725 -92.8433 51° Northeast 505 581 35,000  Level Fort Worth Center
Tue 03:38:54 PM 32.4714 -92.6908 52° Northeast 518 596 35,000  Level Fort Worth Center
Tue 03:39:54 PM 32.5583 -92.5606 52° Northeast 513 590 35,000  Level Fort Worth Center
Tue 03:40:54 PM 32.6250 -92.4558 53° Northeast 506 582 35,000  Level Fort Worth Center
Tue 03:41:54 PM 32.7275 -92.3044 51° Northeast 499 574 35,000  Level Fort Worth Center
Tue 03:44:21 PM 32.9264 -91.9908 53° Northeast 501 577 35,000  Level Memphis Center
Tue 03:45:21 PM 33.0114 -91.8661 51° Northeast 495 570 35,000  Level Memphis Center
Tue 03:46:21 PM 33.0922 -91.7358 53° Northeast 495 570 35,000  Level Memphis Center
Tue 03:47:21 PM 33.1792 -91.6058 51° Northeast 495 570 35,000  Level Memphis Center
Tue 03:48:21 PM 33.2642 -91.4703 53° Northeast 495 570 35,000  Level Memphis Center
Tue 03:49:21 PM 33.3444 -91.3469 52° Northeast 509 586 35,000  Level Memphis Center
Tue 03:50:21 PM 33.4289 -91.2161 52° Northeast 509 586 35,000  Level Memphis Center
Tue 03:51:21 PM 33.5111 -91.0822 54° Northeast 502 578 35,000  Level Memphis Center
Tue 03:52:21 PM 33.5933 -90.9508 53° Northeast 496 571 35,000  Level Memphis Center
Tue 03:53:21 PM 33.6794 -90.8164 52° Northeast 496 571 35,000  Level Memphis Center
Tue 03:54:21 PM 33.7653 -90.6844 52° Northeast 502 578 35,000  Level Memphis Center
Tue 03:55:21 PM 33.8575 -90.5322 54° Northeast 502 578 35,000  Level Memphis Center
Tue 03:56:21 PM 33.9431 -90.3972 53° Northeast 502 578 35,000  Level Memphis Center
Tue 03:57:21 PM 34.0267 -90.2619 53° Northeast 502 578 35,000  Level Memphis Center
Tue 03:58:21 PM 34.1100 -90.1214 54° Northeast 502 578 35,000  Level Memphis Center
Tue 03:59:21 PM 34.1867 -90.0006 52° Northeast 502 578 35,000  Level Memphis Center
Tue 04:00:21 PM 34.2719 -89.8619 53° Northeast 509 586 35,000  Level Memphis Center
Tue 04:01:21 PM 34.3547 -89.7206 55° Northeast 509 586 35,000  Level Memphis Center
Tue 04:02:21 PM 34.4394 -89.5864 53° Northeast 509 586 35,000  Level Memphis Center
Tue 04:03:21 PM 34.5219 -89.4497 54° Northeast 504 580 35,000  Level Memphis Center
Tue 04:04:21 PM 34.6064 -89.3100 54° Northeast 504 580 35,000  Level Memphis Center
Tue 04:05:21 PM 34.6908 -89.1675 54° Northeast 510 587 35,000  Level Memphis Center
Tue 04:06:21 PM 34.7747 -89.0272 54° Northeast 510 587 35,000  Level Memphis Center
Tue 04:07:21 PM 34.8608 -88.8867 53° Northeast 510 587 35,000  Level Memphis Center
Tue 04:08:21 PM 34.9467 -88.7458 53° Northeast 510 587 35,000  Level Memphis Center
Tue 04:09:21 PM 35.0283 -88.6097 54° Northeast 504 580 35,000  Level Memphis Center
Tue 04:10:21 PM 35.1119 -88.4736 53° Northeast 506 582 35,000  Level Memphis Center
Tue 04:11:21 PM 35.1953 -88.3344 54° Northeast 501 577 35,000  Level Memphis Center
Tue 04:12:21 PM 35.2742 -88.1953 55° Northeast 501 577 35,000  Level Memphis Center
Tue 04:13:21 PM 35.3572 -88.0556 54° Northeast 501 577 35,000  Level Memphis Center
Tue 04:14:21 PM 35.4461 -87.9053 54° Northeast 501 577 35,000  Level Memphis Center
Tue 04:15:21 PM 35.5244 -87.7628 56° Northeast 501 577 35,000  Level Memphis Center
Tue 04:16:21 PM 35.5969 -87.6378 54° Northeast 501 577 35,000 -400 Level Memphis Center
Tue 04:17:21 PM 35.6772 -87.4997 54° Northeast 501 577 34,200 -1,150 Descending Memphis Center
Tue 04:18:21 PM 35.7553 -87.3614 55° Northeast 495 570 32,700 -1,400 Descending Memphis Center
Tue 04:19:21 PM 35.8272 -87.2333 55° Northeast 474 545 31,400 -850 Descending Memphis Center
Tue 04:20:21 PM 35.9011 -87.1050 55° Northeast 469 540 31,000 -200 Descending Memphis Center
Tue 04:21:21 PM 35.9728 -86.9767 55° Northeast 456 525 31,000  Level Memphis Center
Tue 04:22:21 PM 36.0442 -86.8478 56° Northeast 456 525 31,000  Level Memphis Center
Tue 04:23:21 PM 36.1175 -86.7161 55° Northeast 456 525 31,000  Level Memphis Center
Tue 04:24:21 PM 36.1972 -86.5944 51° Northeast 456 525 31,000  Level Memphis Center
Tue 04:25:21 PM 36.2833 -86.4719 49° Northeast 461 531 31,000  Level Memphis Center
Tue 04:26:21 PM 36.3689 -86.3492 49° Northeast 466 536 31,000 -450 Level Memphis Center
Tue 04:27:21 PM 36.4547 -86.2289 48° Northeast 466 536 30,100 -1,100 Descending Memphis Center
Tue 04:28:21 PM 36.5400 -86.1058 49° Northeast 471 542 28,800 -1,263 Descending Memphis Center
Tue 04:30:50 PM 36.7486 -85.8028 49° Northeast 467 537 25,700 -1,251 Descending Indianapolis Center
Tue 04:31:52 PM 36.8419 -85.6669 49° Northeast 469 540 24,400 -823 Descending Indianapolis Center
Tue 04:32:54 PM 36.9233 -85.5469 50° Northeast 454 522 24,000 -484 Descending Indianapolis Center
Tue 04:33:56 PM 37.0111 -85.4167 50° Northeast 446 513 23,400 -726 Descending Indianapolis Center
Tue 04:34:58 PM 37.0939 -85.3169 44° Northeast 441 507 22,500 -968 Descending Indianapolis Center
Tue 04:36:00 PM 37.1886 -85.2267 37° Northeast 429 494 21,400 -1,355 Descending Indianapolis Center
Tue 04:37:02 PM 37.2969 -85.1244 37° Northeast 418 481 19,700 -1,839 Descending Indianapolis Center
Tue 04:38:04 PM 37.3856 -85.0378 38° Northeast 406 467 17,600 -2,081 Descending Indianapolis Center
Tue 04:39:06 PM 37.4736 -84.9522 38° Northeast 401 461 15,400 -2,177 Descending Indianapolis Center
Tue 04:40:08 PM 37.5583 -84.8711 37° Northeast 389 448 13,100 -1,935 Descending Indianapolis Center
Tue 04:41:10 PM 37.6389 -84.7919 38° Northeast 372 428 11,400 -1,452 Descending Indianapolis Center
Tue 04:42:12 PM 37.7067 -84.7261 38° Northeast 323 372 10,100 -1,500 Descending Indianapolis Center
Tue 04:43:14 PM 37.7789 -84.6564 37° Northeast 287 330 8,300 -1,839 Descending Indianapolis Center
Tue 04:44:16 PM 37.8386 -84.5983 38° Northeast 275 316 6,300 -1,839 Descending Indianapolis Center
Tue 04:45:18 PM 37.8972 -84.5397 38° Northeast 271 312 4,500 -1,113 Descending Indianapolis Center
Tue 04:46:20 PM 37.9572 -84.4831 37° Northeast 269 310 4,000 -581 Descending Indianapolis Center
Tue 04:47:22 PM 38.0233 -84.4906 355° North 250 288 3,300 -677 Descending Indianapolis Center

Login

Don't have an account? Register now (free) for customized features, flight alerts, and more!